Sikinos — 9HA2865 — position and weather

sailwx.info

Track history (hours):
 
Tides and Currents Weather Stations Pressure Air Temp Water Temp Dewpoint Dewpoint Depression Visibility Wind Speed Wind Dir Waves Ship Positions

Sikinos

Last reported at 2018-Apr-20 23:10 UTC. Time now 2018-Apr-21 02:19 UTC.
Position N 53°51' E 007°58'.

Length 90 m; draft 4.4 m.

Type: Ship (hazmat cat A). MMSI: 256462000.

Date/timePositionNaut miles runAvg speedWind from/ knotsBaromVisibWave heightAir tempDewpointWater temp
2018-Apr-20 23:10N 53°51' E 007°58'210.1
2018-Apr-20 23:00N 53°51' E 008°01'5 9.7
2018-Apr-20 22:30N 53°48' E 008°08'611.0
2018-Apr-20 22:00N 53°44' E 008°14'612.8
2018-Apr-20 21:30N 53°40' E 008°22'713.8
2018-Apr-20 21:00N 53°36' E 008°31'2 3.6
2018-Apr-20 20:30N 53°34' E 008°33'0 0.7
2018-Apr-20 20:00N 53°35' E 008°33'0 0.2
2018-Apr-20 19:30N 53°35' E 008°34'0 0.0
2018-Apr-20 19:00N 53°35' E 008°34'0 0.0
2018-Apr-20 18:30N 53°35' E 008°34'0 0.0
2018-Apr-20 18:00N 53°35' E 008°34'0 0.0
2018-Apr-20 17:30N 53°35' E 008°34'0 0.0
2018-Apr-20 17:00N 53°35' E 008°34'0 0.0
2018-Apr-20 16:30N 53°35' E 008°34'0 0.0
2018-Apr-20 16:00N 53°35' E 008°34'0 0.0
2018-Apr-20 15:27N 53°35' E 008°34'0 0.0
2018-Apr-20 15:00N 53°35' E 008°34'0 0.0
2018-Apr-20 14:30N 53°35' E 008°34'0 0.0
2018-Apr-20 14:00N 53°35' E 008°34'0 0.0
2018-Apr-20 13:30N 53°35' E 008°34'0 0.0
2018-Apr-20 13:00N 53°35' E 008°34'0 0.0
2018-Apr-20 12:30N 53°35' E 008°34'0 0.0
2018-Apr-20 11:57N 53°35' E 008°34'0 0.0
2018-Apr-20 11:30N 53°35' E 008°34'0 0.0
2018-Apr-20 11:00N 53°35' E 008°34'0 0.0
2018-Apr-20 10:30N 53°35' E 008°34'0 0.0
2018-Apr-20 10:00N 53°35' E 008°34'0 0.0
2018-Apr-20 09:30N 53°35' E 008°34'0 0.0
2018-Apr-20 09:00N 53°35' E 008°34'0 0.0
2018-Apr-20 08:30N 53°35' E 008°34'0 0.0
2018-Apr-20 08:00N 53°35' E 008°34'0 0.0
2018-Apr-20 07:30N 53°35' E 008°34'0 0.0
2018-Apr-20 07:00N 53°35' E 008°34'0 0.0
2018-Apr-20 06:30N 53°35' E 008°34'0 0.1
2018-Apr-20 06:00N 53°35' E 008°33'0 1.0
2018-Apr-20 05:30N 53°34' E 008°33'0 0.9
2018-Apr-20 05:00N 53°34' E 008°33'3 5.0
2018-Apr-20 04:30N 53°36' E 008°31'510.2
2018-Apr-20 04:00N 53°39' E 008°24'510.2
2018-Apr-20 03:30N 53°43' E 008°18'510.7
2018-Apr-20 03:00N 53°46' E 008°11'611.1
2018-Apr-20 02:30N 53°50' E 008°04'611.7
2018-Apr-20 01:59N 53°52' E 007°54'510.2
2018-Apr-20 01:30N 53°53' E 007°46'612.3
2018-Apr-20 01:00N 53°54' E 007°36'612.5
2018-Apr-20 00:30N 53°54' E 007°25'7013.2
2018-Apr-19 19:10N 53°35' E 005°30'413.0
2018-Apr-19 18:53N 53°33' E 005°25'513.0
2018-Apr-19 18:30N 53°32' E 005°17'612.6
2018-Apr-19 18:00N 53°30' E 005°07'612.1
2018-Apr-19 17:31N 53°28' E 004°57'611.6
2018-Apr-19 17:00N 53°26' E 004°48'1911.2
2018-Apr-19 15:20N 53°10' E 004°30'611.4
2018-Apr-19 14:48N 53°05' E 004°26'311.2
2018-Apr-19 14:30N 53°02' E 004°23'611.2
2018-Apr-19 13:59N 52°57' E 004°19'611.1
2018-Apr-19 13:27N 52°51' E 004°14'2010.9
2018-Apr-19 11:37N 52°35' E 003°57'310.7
2018-Apr-19 11:20N 52°32' E 003°55'410.8
2018-Apr-19 10:55N 52°27' E 003°54'410.6
2018-Apr-19 10:30N 52°23' E 003°52'510.6
2018-Apr-19 10:00N 52°18' E 003°52'611.1
2018-Apr-19 09:30N 52°12' E 003°54'611.3
2018-Apr-19 09:00N 52°07' E 003°55'510.2
2018-Apr-19 08:30N 52°02' E 003°55'713.0
2018-Apr-19 08:00N 51°59' E 004°05'510.0
2018-Apr-19 07:30N 51°56' E 004°12'0 0.8
2018-Apr-19 06:59N 51°56' E 004°12'0 0.0
2018-Apr-19 06:29N 51°56' E 004°12'0 0.0
2018-Apr-19 05:56N 51°56' E 004°12'0 0.0
2018-Apr-19 05:29N 51°56' E 004°12'0 0.0
2018-Apr-19 04:59N 51°56' E 004°12'0 0.0
2018-Apr-19 04:26N 51°56' E 004°12'0 0.0
2018-Apr-19 03:59N 51°56' E 004°12'0 0.0
2018-Apr-19 03:29N 51°56' E 004°12'0 0.0
2018-Apr-19 02:59N 51°56' E 004°12'0 0.0
2018-Apr-19 02:29N 51°56' E 004°12'0 0.0
2018-Apr-19 01:59N 51°56' E 004°12'0 0.0
2018-Apr-19 01:26N 51°56' E 004°12'0 0.0
2018-Apr-19 00:59N 51°56' E 004°12'0 0.0
2018-Apr-19 00:29N 51°56' E 004°12'0 0.0
2018-Apr-18 23:53N 51°56' E 004°12'0 0.0
2018-Apr-18 23:29N 51°56' E 004°12'0 0.0
2018-Apr-18 22:53N 51°56' E 004°12'0 0.0
2018-Apr-18 22:29N 51°56' E 004°12'0 0.0
2018-Apr-18 21:59N 51°56' E 004°12'0 0.0
2018-Apr-18 21:29N 51°56' E 004°12'0 0.0
2018-Apr-18 20:59N 51°56' E 004°12'0 0.0
2018-Apr-18 20:29N 51°56' E 004°12'0 0.0
2018-Apr-18 19:53N 51°56' E 004°12'0 0.0
2018-Apr-18 19:29N 51°56' E 004°12'0 0.0
2018-Apr-18 18:56N 51°56' E 004°12'0 0.0
2018-Apr-18 18:29N 51°56' E 004°12'0 0.0
2018-Apr-18 17:59N 51°56' E 004°12'0 0.0
2018-Apr-18 17:26N 51°56' E 004°12'0 0.0
2018-Apr-18 16:59N 51°56' E 004°12'0 0.0
2018-Apr-18 16:29N 51°56' E 004°12'0 0.0
2018-Apr-18 15:59N 51°56' E 004°12'0 0.0
2018-Apr-18 15:29N 51°56' E 004°12'0 0.0
2018-Apr-18 14:59N 51°56' E 004°12'0 0.0
2018-Apr-18 14:29N 51°56' E 004°12'0 0.0
2018-Apr-18 13:59N 51°56' E 004°12'0 0.0
2018-Apr-18 13:26N 51°56' E 004°12'0 0.0
2018-Apr-18 12:59N 51°56' E 004°12'0 0.0
2018-Apr-18 12:29N 51°56' E 004°12'0 0.0
2018-Apr-18 11:53N 51°56' E 004°12'0 0.0
2018-Apr-18 11:29N 51°56' E 004°12'0 0.0
2018-Apr-18 10:59N 51°56' E 004°12'0 0.0
2018-Apr-18 10:29N 51°56' E 004°12'0 0.0
2018-Apr-18 09:56N 51°56' E 004°12'0 0.0
2018-Apr-18 09:29N 51°56' E 004°12'0 0.0
2018-Apr-18 08:59N 51°56' E 004°12'0 0.0
2018-Apr-18 08:29N 51°56' E 004°12'0 0.0
2018-Apr-18 07:59N 51°56' E 004°12'0 0.0
2018-Apr-18 07:23N 51°56' E 004°12'0 0.0
2018-Apr-18 06:59N 51°56' E 004°12'0 0.0
2018-Apr-18 06:26N 51°56' E 004°12'0 0.0
2018-Apr-18 05:59N 51°56' E 004°12'0 0.0
2018-Apr-18 05:29N 51°56' E 004°12'0 0.0
2018-Apr-18 04:59N 51°56' E 004°12'0 0.0
2018-Apr-18 04:29N 51°56' E 004°12'0 0.0
2018-Apr-18 03:59N 51°56' E 004°12'0 0.0
2018-Apr-18 03:29N 51°56' E 004°12'0 0.0
2018-Apr-18 03:00N 51°56' E 004°12'3 6.8
2018-Apr-18 02:30N 51°58' E 004°08'612.2
2018-Apr-18 02:00N 52°00' E 003°58'612.8
2018-Apr-18 01:30N 52°01' E 003°48'5 9.3
2018-Apr-18 00:59N 52°05' E 003°46'4 7.7
2018-Apr-18 00:30N 52°09' E 003°46'4 7.8
2018-Apr-18 00:00N 52°13' E 003°46'4 8.0
2018-Apr-17 23:30N 52°17' E 003°47'4 8.2
2018-Apr-17 23:00N 52°21' E 003°48'4 8.4
2018-Apr-17 22:30N 52°25' E 003°49'611.2
2018-Apr-17 22:00N 52°31' E 003°51'6911.3
2018-Apr-17 15:54N 53°30' E 004°48'512.8
2018-Apr-17 15:30N 53°32' E 004°56'713.1
2018-Apr-17 14:59N 53°34' E 005°07'9412.2
2018-Apr-17 07:17N 53°59' E 007°40'412.4
2018-Apr-17 06:55N 53°55' E 007°44'711.4
2018-Apr-17 06:19N 53°52' E 007°54'412.7
2018-Apr-17 05:59N 53°51' E 008°01'714.0
2018-Apr-17 05:30N 53°47' E 008°10'715.0
2018-Apr-17 05:00N 53°42' E 008°20'815.1
2018-Apr-17 04:30N 53°37' E 008°29'4 7.4
2018-Apr-17 04:00N 53°34' E 008°33'0 0.3
2018-Apr-17 03:30N 53°34' E 008°33'0 0.4
2018-Apr-17 02:59N 53°35' E 008°33'0 0.0
2018-Apr-17 02:29N 53°35' E 008°33'0 0.0
2018-Apr-17 01:59N 53°35' E 008°33'0 0.0
2018-Apr-17 01:29N 53°35' E 008°33'0 0.0
2018-Apr-17 00:59N 53°35' E 008°33'0 0.0
2018-Apr-17 00:29N 53°35' E 008°33'0 0.0
2018-Apr-16 23:59N 53°35' E 008°33'0 0.0
2018-Apr-16 23:29N 53°35' E 008°33'0 0.0
2018-Apr-16 22:59N 53°35' E 008°33'0 0.0
2018-Apr-16 22:29N 53°35' E 008°33'0 0.0
2018-Apr-16 21:56N 53°35' E 008°33'0 0.0
2018-Apr-16 21:29N 53°35' E 008°33'0 0.0
2018-Apr-16 20:59N 53°35' E 008°33'0 0.0
2018-Apr-16 20:29N 53°35' E 008°33'0 0.0
2018-Apr-16 19:59N 53°35' E 008°33'0 0.0
2018-Apr-16 19:29N 53°35' E 008°33'0 0.0
2018-Apr-16 18:59N 53°35' E 008°33'0 0.0
2018-Apr-16 18:29N 53°35' E 008°33'0 0.0
2018-Apr-16 17:59N 53°35' E 008°33'0 0.0
2018-Apr-16 17:29N 53°35' E 008°33'0 0.0
2018-Apr-16 17:01N 53°35' E 008°33'0 0.8
2018-Apr-16 16:30N 53°34' E 008°33'0 0.2
2018-Apr-16 16:00N 53°34' E 008°33'1 1.6
2018-Apr-16 15:30N 53°35' E 008°32'3 5.8
2018-Apr-16 15:00N 53°37' E 008°29'4 7.8
2018-Apr-16 14:30N 53°39' E 008°24'4 8.7
2018-Apr-16 14:00N 53°42' E 008°19'510.2
2018-Apr-16 13:30N 53°45' E 008°12'510.6
2018-Apr-16 13:00N 53°49' E 008°06'611.5
2018-Apr-16 12:30N 53°51' E 007°57'4 0.6
2018-Apr-16 05:30N 53°54' E 007°51'0 0.0
2018-Apr-16 02:39N 53°54' E 007°51'0 0.0
2018-Apr-16 02:27N 53°54' E 007°51'0 0.0
2018-Apr-16 01:39N 53°54' E 007°51'0 0.0
2018-Apr-15 08:49N 53°54' E 007°51'410.8
2018-Apr-15 08:24N 53°54' E 007°43'513.0
2018-Apr-15 08:00N 53°54' E 007°35'7912.2
2018-Apr-15 01:32N 53°34' E 005°26'110.7
2018-Apr-15 01:27N 53°33' E 005°25'510.6
2018-Apr-15 01:00N 53°32' E 005°17'510.8
2018-Apr-15 00:31N 53°30' E 005°09'510.9
2018-Apr-15 00:00N 53°28' E 004°60'611.0
2018-Apr-14 23:30N 53°26' E 004°51'611.1
2018-Apr-14 23:01N 53°24' E 004°43'611.0
2018-Apr-14 22:30N 53°20' E 004°38'611.3
2018-Apr-14 21:57N 53°14' E 004°33'511.2
2018-Apr-14 21:30N 53°10' E 004°30'611.1
2018-Apr-14 21:00N 53°05' E 004°26'611.3
2018-Apr-14 20:30N 52°60' E 004°21'611.3
2018-Apr-14 20:00N 52°55' E 004°17'611.1
2018-Apr-14 19:31N 52°50' E 004°13'611.2
2018-Apr-14 19:00N 52°45' E 004°07'611.5
2018-Apr-14 18:30N 52°41' E 004°01'611.7
2018-Apr-14 18:00N 52°37' E 003°54'612.0
2018-Apr-14 17:30N 52°32' E 003°47'612.3
2018-Apr-14 16:59N 52°28' E 003°40'612.6
2018-Apr-14 16:29N 52°23' E 003°33'612.7
2018-Apr-14 16:00N 52°19' E 003°26'5412.6
2018-Apr-14 11:40N 51°31' E 002°43'313.0
2018-Apr-14 11:26N 51°28' E 002°43'512.1
2018-Apr-14 11:00N 51°23' E 002°45'5 9.2
2018-Apr-14 10:30N 51°22' E 002°52'611.1
2018-Apr-14 10:00N 51°22' E 003°01'611.2
2018-Apr-14 09:31N 51°22' E 003°10'2 3.6
2018-Apr-14 09:00N 51°21' E 003°12'0 0.0
2018-Apr-14 08:30N 51°21' E 003°12'0 0.0
2018-Apr-14 08:00N 51°21' E 003°12'0 0.0
2018-Apr-14 07:27N 51°21' E 003°12'0 0.0
2018-Apr-14 07:00N 51°21' E 003°12'0 0.0
2018-Apr-14 06:30N 51°21' E 003°12'0 0.0
2018-Apr-14 06:00N 51°21' E 003°12'0 0.0
2018-Apr-14 05:30N 51°21' E 003°12'0 0.0
2018-Apr-14 05:00N 51°21' E 003°12'0 0.0
2018-Apr-14 04:30N 51°21' E 003°12'0 0.0
2018-Apr-14 04:00N 51°21' E 003°12'0 0.0
2018-Apr-14 03:30N 51°21' E 003°12'0 0.0
2018-Apr-14 03:00N 51°21' E 003°12'0 0.0
2018-Apr-14 02:30N 51°21' E 003°12'0 0.0
2018-Apr-14 01:57N 51°21' E 003°12'0 0.0
2018-Apr-14 01:30N 51°21' E 003°12'0 0.0
2018-Apr-14 01:00N 51°21' E 003°12'0 0.0
2018-Apr-14 00:30N 51°21' E 003°12'0 0.0
2018-Apr-14 00:00N 51°21' E 003°12'0 0.0
2018-Apr-13 23:30N 51°21' E 003°12'0 0.0
2018-Apr-13 23:00N 51°21' E 003°12'0 0.0
2018-Apr-13 22:30N 51°21' E 003°12'0 0.0
2018-Apr-13 22:00N 51°21' E 003°12'0 0.0
2018-Apr-13 21:30N 51°21' E 003°12'0 0.0
2018-Apr-13 21:00N 51°21' E 003°12'0 0.0
2018-Apr-13 20:30N 51°21' E 003°12'0 0.0
2018-Apr-13 20:00N 51°21' E 003°12'0 0.0
2018-Apr-13 19:30N 51°21' E 003°12'0 0.0
2018-Apr-13 19:00N 51°21' E 003°12'0 0.0
2018-Apr-13 18:30N 51°21' E 003°12'0 0.0
2018-Apr-13 18:00N 51°21' E 003°12'0 0.0
2018-Apr-13 17:30N 51°21' E 003°12'0 0.0
2018-Apr-13 17:00N 51°21' E 003°12'0 0.0
2018-Apr-13 16:30N 51°21' E 003°12'0 0.0
2018-Apr-13 16:00N 51°21' E 003°12'0 0.0
2018-Apr-13 15:30N 51°21' E 003°12'0 0.0
2018-Apr-13 15:00N 51°21' E 003°12'0 0.0
2018-Apr-13 14:30N 51°21' E 003°12'0 0.0
2018-Apr-13 14:00N 51°21' E 003°12'0 0.0
2018-Apr-13 13:30N 51°21' E 003°12'0 0.0
2018-Apr-13 12:59N 51°21' E 003°12'0 0.0
2018-Apr-13 12:30N 51°21' E 003°12'0 0.0
2018-Apr-13 12:00N 51°21' E 003°12'0 0.0
2018-Apr-13 11:29N 51°21' E 003°12'0 0.0
2018-Apr-13 11:00N 51°21' E 003°12'0 0.0
2018-Apr-13 10:30N 51°21' E 003°12'0 0.0
2018-Apr-13 10:00N 51°21' E 003°12'0 0.0
2018-Apr-13 09:30N 51°21' E 003°12'0 0.0
2018-Apr-13 09:00N 51°21' E 003°12'0 0.0
2018-Apr-13 08:30N 51°21' E 003°12'0 0.0
2018-Apr-13 08:00N 51°21' E 003°12'0 0.0
2018-Apr-13 07:29N 51°21' E 003°12'0 0.0
2018-Apr-13 07:00N 51°21' E 003°12'0 0.0
2018-Apr-13 06:26N 51°21' E 003°12'0 0.0
2018-Apr-13 05:59N 51°21' E 003°12'0 0.0
2018-Apr-13 05:29N 51°21' E 003°12'0 0.0
2018-Apr-13 04:59N 51°21' E 003°12'0 0.0
2018-Apr-13 04:26N 51°21' E 003°12'0 0.0
2018-Apr-13 04:00N 51°21' E 003°12'0 0.0
2018-Apr-13 03:30N 51°21' E 003°12'0 0.0
2018-Apr-13 02:59N 51°21' E 003°12'0 0.0
2018-Apr-13 02:29N 51°21' E 003°12'0 0.0
2018-Apr-13 02:00N 51°21' E 003°12'0 0.0
2018-Apr-13 01:30N 51°21' E 003°12'0 0.0
2018-Apr-13 00:59N 51°21' E 003°12'0 0.0
2018-Apr-13 00:30N 51°21' E 003°12'0 0.0
2018-Apr-12 23:59N 51°21' E 003°12'0 0.0
2018-Apr-12 23:29N 51°21' E 003°12'0 0.0
2018-Apr-12 22:59N 51°21' E 003°12'0 0.0
2018-Apr-12 22:29N 51°21' E 003°12'0 0.0
2018-Apr-12 21:59N 51°21' E 003°12'0 0.0
2018-Apr-12 21:29N 51°21' E 003°12'0 0.0
2018-Apr-12 20:59N 51°21' E 003°12'0 0.0
2018-Apr-12 20:29N 51°21' E 003°12'0 0.0
2018-Apr-12 20:00N 51°21' E 003°12'0 0.0
2018-Apr-12 19:30N 51°21' E 003°12'0 0.0
2018-Apr-12 18:59N 51°21' E 003°12'0 0.0
2018-Apr-12 18:29N 51°21' E 003°12'0 0.0
2018-Apr-12 17:59N 51°21' E 003°12'0 0.0
2018-Apr-12 17:29N 51°21' E 003°12'0 0.0
2018-Apr-12 16:59N 51°21' E 003°12'0 0.0
2018-Apr-12 16:29N 51°21' E 003°12'0 0.0
2018-Apr-12 15:59N 51°21' E 003°12'0 0.0
2018-Apr-12 15:29N 51°21' E 003°12'0 0.0
2018-Apr-12 14:59N 51°21' E 003°12'0 0.0
2018-Apr-12 14:29N 51°21' E 003°12'0 0.0
2018-Apr-12 13:59N 51°21' E 003°12'0 0.0
2018-Apr-12 13:30N 51°21' E 003°12'0 0.0
2018-Apr-12 12:59N 51°21' E 003°12'0 0.0
2018-Apr-12 12:29N 51°21' E 003°12'0 0.0
2018-Apr-12 11:59N 51°21' E 003°12'0 0.0
2018-Apr-12 11:29N 51°21' E 003°12'0 0.0
2018-Apr-12 10:59N 51°21' E 003°12'0 0.0
2018-Apr-12 10:29N 51°21' E 003°12'0 0.0
2018-Apr-12 09:59N 51°21' E 003°12'0 0.0
2018-Apr-12 09:29N 51°21' E 003°12'0 0.0
2018-Apr-12 08:59N 51°21' E 003°12'0 0.0
2018-Apr-12 08:29N 51°21' E 003°12'0 0.0
2018-Apr-12 07:59N 51°21' E 003°12'0 0.0
2018-Apr-12 07:26N 51°21' E 003°12'0 0.0
2018-Apr-12 06:59N 51°21' E 003°12'0 0.0
2018-Apr-12 06:26N 51°21' E 003°12'0 0.0
2018-Apr-12 05:59N 51°21' E 003°12'0 0.0
2018-Apr-12 05:29N 51°21' E 003°12'0 0.0
2018-Apr-12 04:59N 51°21' E 003°12'0 0.0
2018-Apr-12 04:29N 51°21' E 003°12'0 0.0
2018-Apr-12 03:59N 51°21' E 003°12'0 0.0
2018-Apr-12 03:29N 51°21' E 003°12'0 0.0
2018-Apr-12 02:59N 51°21' E 003°12'0 0.0
2018-Apr-12 02:29N 51°21' E 003°12'0 0.0
2018-Apr-12 01:59N 51°21' E 003°12'0 0.0
2018-Apr-12 01:29N 51°21' E 003°12'0 0.0
2018-Apr-12 00:59N 51°21' E 003°12'0 0.0
2018-Apr-12 00:29N 51°21' E 003°12'0 0.0
2018-Apr-11 23:59N 51°21' E 003°12'0 0.0
2018-Apr-11 23:29N 51°21' E 003°12'0 0.0
2018-Apr-11 22:59N 51°21' E 003°12'0 0.0
2018-Apr-11 22:29N 51°21' E 003°12'0 0.0
2018-Apr-11 21:59N 51°21' E 003°12'0 0.0
2018-Apr-11 21:29N 51°21' E 003°12'0 0.0
2018-Apr-11 20:59N 51°21' E 003°12'0 0.0
2018-Apr-11 20:29N 51°21' E 003°12'0 0.0
2018-Apr-11 19:59N 51°21' E 003°12'0 0.0
2018-Apr-11 19:29N 51°21' E 003°12'0 0.0
2018-Apr-11 18:59N 51°21' E 003°12'0 0.0
2018-Apr-11 18:29N 51°21' E 003°12'0 0.0
2018-Apr-11 17:59N 51°21' E 003°12'0 0.0
2018-Apr-11 17:29N 51°21' E 003°12'0 0.0
2018-Apr-11 16:59N 51°21' E 003°12'0 0.0
2018-Apr-11 16:29N 51°21' E 003°12'0 0.0
2018-Apr-11 15:59N 51°21' E 003°12'0 0.0
2018-Apr-11 15:29N 51°21' E 003°12'0 0.0
2018-Apr-11 14:59N 51°21' E 003°12'0 0.0
2018-Apr-11 14:29N 51°21' E 003°12'0 0.0
2018-Apr-11 13:59N 51°21' E 003°12'0 0.0
2018-Apr-11 13:29N 51°21' E 003°12'0 0.0
2018-Apr-11 12:59N 51°21' E 003°12'0 0.0
2018-Apr-11 12:29N 51°21' E 003°12'0 0.0
2018-Apr-11 11:59N 51°21' E 003°12'0 0.0
2018-Apr-11 11:29N 51°21' E 003°12'0 0.0
2018-Apr-11 10:59N 51°21' E 003°12'0 0.0
2018-Apr-11 10:29N 51°21' E 003°12'0 0.0
2018-Apr-11 09:59N 51°21' E 003°12'0 0.0
2018-Apr-11 09:29N 51°21' E 003°12'0 0.0
2018-Apr-11 08:56N 51°21' E 003°12'0 0.0
2018-Apr-11 08:29N 51°21' E 003°12'0 0.0
2018-Apr-11 07:59N 51°21' E 003°12'0 0.0
2018-Apr-11 07:29N 51°21' E 003°12'0 0.0
2018-Apr-11 06:59N 51°21' E 003°12'0 0.0
2018-Apr-11 06:29N 51°21' E 003°12'0 0.0
2018-Apr-11 05:59N 51°21' E 003°12'0 0.0
2018-Apr-11 05:20N 51°21' E 003°12'0 0.0
2018-Apr-11 04:59N 51°21' E 003°12'0 0.0
2018-Apr-11 04:29N 51°21' E 003°12'0 0.0
2018-Apr-11 03:59N 51°21' E 003°12'0 0.0
2018-Apr-11 03:29N 51°21' E 003°12'0 0.0
2018-Apr-11 02:59N 51°21' E 003°12'0 0.0
2018-Apr-11 02:29N 51°21' E 003°12'0 0.0
2018-Apr-11 01:59N 51°21' E 003°12'0 0.0
2018-Apr-11 01:29N 51°21' E 003°12'0 0.0
2018-Apr-11 00:59N 51°21' E 003°12'0 0.0
2018-Apr-11 00:29N 51°21' E 003°12'0 0.0
2018-Apr-10 23:59N 51°21' E 003°12'0 0.0
2018-Apr-10 23:29N 51°21' E 003°12'  
Track history (hours):
 
Tides and Currents Weather Stations Pressure Air Temp Water Temp Dewpoint Dewpoint Depression Visibility Wind Speed Wind Dir Waves Ship Positions

Sikinos

Last reported at 2018-Apr-20 23:10 UTC. Time now 2018-Apr-21 02:19 UTC.
Position N 53°51' E 007°58'.

Length 90 m; draft 4.4 m.

Type: Ship (hazmat cat A). MMSI: 256462000.

Date/timePositionNaut miles runAvg speedWind from/ knotsBaromVisibWave heightAir tempDewpointWater temp
2018-Apr-20 23:10N 53°51' E 007°58'210.1
2018-Apr-20 23:00N 53°51' E 008°01'5 9.7
2018-Apr-20 22:30N 53°48' E 008°08'611.0
2018-Apr-20 22:00N 53°44' E 008°14'612.8
2018-Apr-20 21:30N 53°40' E 008°22'713.8
2018-Apr-20 21:00N 53°36' E 008°31'2 3.6
2018-Apr-20 20:30N 53°34' E 008°33'0 0.7
2018-Apr-20 20:00N 53°35' E 008°33'0 0.2
2018-Apr-20 19:30N 53°35' E 008°34'0 0.0
2018-Apr-20 19:00N 53°35' E 008°34'0 0.0
2018-Apr-20 18:30N 53°35' E 008°34'0 0.0
2018-Apr-20 18:00N 53°35' E 008°34'0 0.0
2018-Apr-20 17:30N 53°35' E 008°34'0 0.0
2018-Apr-20 17:00N 53°35' E 008°34'0 0.0
2018-Apr-20 16:30N 53°35' E 008°34'0 0.0
2018-Apr-20 16:00N 53°35' E 008°34'0 0.0
2018-Apr-20 15:27N 53°35' E 008°34'0 0.0
2018-Apr-20 15:00N 53°35' E 008°34'0 0.0
2018-Apr-20 14:30N 53°35' E 008°34'0 0.0
2018-Apr-20 14:00N 53°35' E 008°34'0 0.0
2018-Apr-20 13:30N 53°35' E 008°34'0 0.0
2018-Apr-20 13:00N 53°35' E 008°34'0 0.0
2018-Apr-20 12:30N 53°35' E 008°34'0 0.0
2018-Apr-20 11:57N 53°35' E 008°34'0 0.0
2018-Apr-20 11:30N 53°35' E 008°34'0 0.0
2018-Apr-20 11:00N 53°35' E 008°34'0 0.0
2018-Apr-20 10:30N 53°35' E 008°34'0 0.0
2018-Apr-20 10:00N 53°35' E 008°34'0 0.0
2018-Apr-20 09:30N 53°35' E 008°34'0 0.0
2018-Apr-20 09:00N 53°35' E 008°34'0 0.0
2018-Apr-20 08:30N 53°35' E 008°34'0 0.0
2018-Apr-20 08:00N 53°35' E 008°34'0 0.0
2018-Apr-20 07:30N 53°35' E 008°34'0 0.0
2018-Apr-20 07:00N 53°35' E 008°34'0 0.0
2018-Apr-20 06:30N 53°35' E 008°34'0 0.1
2018-Apr-20 06:00N 53°35' E 008°33'0 1.0
2018-Apr-20 05:30N 53°34' E 008°33'0 0.9
2018-Apr-20 05:00N 53°34' E 008°33'3 5.0
2018-Apr-20 04:30N 53°36' E 008°31'510.2
2018-Apr-20 04:00N 53°39' E 008°24'510.2
2018-Apr-20 03:30N 53°43' E 008°18'510.7
2018-Apr-20 03:00N 53°46' E 008°11'611.1
2018-Apr-20 02:30N 53°50' E 008°04'611.7
2018-Apr-20 01:59N 53°52' E 007°54'510.2
2018-Apr-20 01:30N 53°53' E 007°46'612.3
2018-Apr-20 01:00N 53°54' E 007°36'612.5
2018-Apr-20 00:30N 53°54' E 007°25'7013.2
2018-Apr-19 19:10N 53°35' E 005°30'413.0
2018-Apr-19 18:53N 53°33' E 005°25'513.0
2018-Apr-19 18:30N 53°32' E 005°17'612.6
2018-Apr-19 18:00N 53°30' E 005°07'612.1
2018-Apr-19 17:31N 53°28' E 004°57'611.6
2018-Apr-19 17:00N 53°26' E 004°48'1911.2
2018-Apr-19 15:20N 53°10' E 004°30'611.4
2018-Apr-19 14:48N 53°05' E 004°26'311.2
2018-Apr-19 14:30N 53°02' E 004°23'611.2
2018-Apr-19 13:59N 52°57' E 004°19'611.1
2018-Apr-19 13:27N 52°51' E 004°14'2010.9
2018-Apr-19 11:37N 52°35' E 003°57'310.7
2018-Apr-19 11:20N 52°32' E 003°55'410.8
2018-Apr-19 10:55N 52°27' E 003°54'410.6
2018-Apr-19 10:30N 52°23' E 003°52'510.6
2018-Apr-19 10:00N 52°18' E 003°52'611.1
2018-Apr-19 09:30N 52°12' E 003°54'611.3
2018-Apr-19 09:00N 52°07' E 003°55'510.2
2018-Apr-19 08:30N 52°02' E 003°55'713.0
2018-Apr-19 08:00N 51°59' E 004°05'510.0
2018-Apr-19 07:30N 51°56' E 004°12'0 0.8
2018-Apr-19 06:59N 51°56' E 004°12'0 0.0
2018-Apr-19 06:29N 51°56' E 004°12'0 0.0
2018-Apr-19 05:56N 51°56' E 004°12'0 0.0
2018-Apr-19 05:29N 51°56' E 004°12'0 0.0
2018-Apr-19 04:59N 51°56' E 004°12'0 0.0
2018-Apr-19 04:26N 51°56' E 004°12'0 0.0
2018-Apr-19 03:59N 51°56' E 004°12'0 0.0
2018-Apr-19 03:29N 51°56' E 004°12'0 0.0
2018-Apr-19 02:59N 51°56' E 004°12'0 0.0
2018-Apr-19 02:29N 51°56' E 004°12'0 0.0
2018-Apr-19 01:59N 51°56' E 004°12'0 0.0
2018-Apr-19 01:26N 51°56' E 004°12'0 0.0
2018-Apr-19 00:59N 51°56' E 004°12'0 0.0
2018-Apr-19 00:29N 51°56' E 004°12'0 0.0
2018-Apr-18 23:53N 51°56' E 004°12'0 0.0
2018-Apr-18 23:29N 51°56' E 004°12'0 0.0
2018-Apr-18 22:53N 51°56' E 004°12'0 0.0
2018-Apr-18 22:29N 51°56' E 004°12'0 0.0
2018-Apr-18 21:59N 51°56' E 004°12'0 0.0
2018-Apr-18 21:29N 51°56' E 004°12'0 0.0
2018-Apr-18 20:59N 51°56' E 004°12'0 0.0
2018-Apr-18 20:29N 51°56' E 004°12'0 0.0
2018-Apr-18 19:53N 51°56' E 004°12'0 0.0
2018-Apr-18 19:29N 51°56' E 004°12'0 0.0
2018-Apr-18 18:56N 51°56' E 004°12'0 0.0
2018-Apr-18 18:29N 51°56' E 004°12'0 0.0
2018-Apr-18 17:59N 51°56' E 004°12'0 0.0
2018-Apr-18 17:26N 51°56' E 004°12'0 0.0
2018-Apr-18 16:59N 51°56' E 004°12'0 0.0
2018-Apr-18 16:29N 51°56' E 004°12'0 0.0
2018-Apr-18 15:59N 51°56' E 004°12'0 0.0
2018-Apr-18 15:29N 51°56' E 004°12'0 0.0
2018-Apr-18 14:59N 51°56' E 004°12'0 0.0
2018-Apr-18 14:29N 51°56' E 004°12'0 0.0
2018-Apr-18 13:59N 51°56' E 004°12'0 0.0
2018-Apr-18 13:26N 51°56' E 004°12'0 0.0
2018-Apr-18 12:59N 51°56' E 004°12'0 0.0
2018-Apr-18 12:29N 51°56' E 004°12'0 0.0
2018-Apr-18 11:53N 51°56' E 004°12'0 0.0
2018-Apr-18 11:29N 51°56' E 004°12'0 0.0
2018-Apr-18 10:59N 51°56' E 004°12'0 0.0
2018-Apr-18 10:29N 51°56' E 004°12'0 0.0
2018-Apr-18 09:56N 51°56' E 004°12'0 0.0
2018-Apr-18 09:29N 51°56' E 004°12'0 0.0
2018-Apr-18 08:59N 51°56' E 004°12'0 0.0
2018-Apr-18 08:29N 51°56' E 004°12'0 0.0
2018-Apr-18 07:59N 51°56' E 004°12'0 0.0
2018-Apr-18 07:23N 51°56' E 004°12'0 0.0
2018-Apr-18 06:59N 51°56' E 004°12'0 0.0
2018-Apr-18 06:26N 51°56' E 004°12'0 0.0
2018-Apr-18 05:59N 51°56' E 004°12'0 0.0
2018-Apr-18 05:29N 51°56' E 004°12'0 0.0
2018-Apr-18 04:59N 51°56' E 004°12'0 0.0
2018-Apr-18 04:29N 51°56' E 004°12'0 0.0
2018-Apr-18 03:59N 51°56' E 004°12'0 0.0
2018-Apr-18 03:29N 51°56' E 004°12'0 0.0
2018-Apr-18 03:00N 51°56' E 004°12'3 6.8
2018-Apr-18 02:30N 51°58' E 004°08'612.2
2018-Apr-18 02:00N 52°00' E 003°58'612.8
2018-Apr-18 01:30N 52°01' E 003°48'5 9.3
2018-Apr-18 00:59N 52°05' E 003°46'4 7.7
2018-Apr-18 00:30N 52°09' E 003°46'4 7.8
2018-Apr-18 00:00N 52°13' E 003°46'4 8.0
2018-Apr-17 23:30N 52°17' E 003°47'4 8.2
2018-Apr-17 23:00N 52°21' E 003°48'4 8.4
2018-Apr-17 22:30N 52°25' E 003°49'611.2
2018-Apr-17 22:00N 52°31' E 003°51'6911.3
2018-Apr-17 15:54N 53°30' E 004°48'512.8
2018-Apr-17 15:30N 53°32' E 004°56'713.1
2018-Apr-17 14:59N 53°34' E 005°07'9412.2
2018-Apr-17 07:17N 53°59' E 007°40'412.4
2018-Apr-17 06:55N 53°55' E 007°44'711.4
2018-Apr-17 06:19N 53°52' E 007°54'412.7
2018-Apr-17 05:59N 53°51' E 008°01'714.0
2018-Apr-17 05:30N 53°47' E 008°10'715.0
2018-Apr-17 05:00N 53°42' E 008°20'815.1
2018-Apr-17 04:30N 53°37' E 008°29'4 7.4
2018-Apr-17 04:00N 53°34' E 008°33'0 0.3
2018-Apr-17 03:30N 53°34' E 008°33'0 0.4
2018-Apr-17 02:59N 53°35' E 008°33'0 0.0
2018-Apr-17 02:29N 53°35' E 008°33'0 0.0
2018-Apr-17 01:59N 53°35' E 008°33'0 0.0
2018-Apr-17 01:29N 53°35' E 008°33'0 0.0
2018-Apr-17 00:59N 53°35' E 008°33'0 0.0
2018-Apr-17 00:29N 53°35' E 008°33'0 0.0
2018-Apr-16 23:59N 53°35' E 008°33'0 0.0
2018-Apr-16 23:29N 53°35' E 008°33'0 0.0
2018-Apr-16 22:59N 53°35' E 008°33'0 0.0
2018-Apr-16 22:29N 53°35' E 008°33'0 0.0
2018-Apr-16 21:56N 53°35' E 008°33'0 0.0
2018-Apr-16 21:29N 53°35' E 008°33'0 0.0
2018-Apr-16 20:59N 53°35' E 008°33'0 0.0
2018-Apr-16 20:29N 53°35' E 008°33'0 0.0
2018-Apr-16 19:59N 53°35' E 008°33'0 0.0
2018-Apr-16 19:29N 53°35' E 008°33'0 0.0
2018-Apr-16 18:59N 53°35' E 008°33'0 0.0
2018-Apr-16 18:29N 53°35' E 008°33'0 0.0
2018-Apr-16 17:59N 53°35' E 008°33'0 0.0
2018-Apr-16 17:29N 53°35' E 008°33'0 0.0
2018-Apr-16 17:01N 53°35' E 008°33'0 0.8
2018-Apr-16 16:30N 53°34' E 008°33'0 0.2
2018-Apr-16 16:00N 53°34' E 008°33'1 1.6
2018-Apr-16 15:30N 53°35' E 008°32'3 5.8
2018-Apr-16 15:00N 53°37' E 008°29'4 7.8
2018-Apr-16 14:30N 53°39' E 008°24'4 8.7
2018-Apr-16 14:00N 53°42' E 008°19'510.2
2018-Apr-16 13:30N 53°45' E 008°12'510.6
2018-Apr-16 13:00N 53°49' E 008°06'611.5
2018-Apr-16 12:30N 53°51' E 007°57'4 0.6
2018-Apr-16 05:30N 53°54' E 007°51'0 0.0
2018-Apr-16 02:39N 53°54' E 007°51'0 0.0
2018-Apr-16 02:27N 53°54' E 007°51'0 0.0
2018-Apr-16 01:39N 53°54' E 007°51'0 0.0
2018-Apr-15 08:49N 53°54' E 007°51'410.8
2018-Apr-15 08:24N 53°54' E 007°43'513.0
2018-Apr-15 08:00N 53°54' E 007°35'7912.2
2018-Apr-15 01:32N 53°34' E 005°26'110.7
2018-Apr-15 01:27N 53°33' E 005°25'510.6
2018-Apr-15 01:00N 53°32' E 005°17'510.8
2018-Apr-15 00:31N 53°30' E 005°09'510.9
2018-Apr-15 00:00N 53°28' E 004°60'611.0
2018-Apr-14 23:30N 53°26' E 004°51'611.1
2018-Apr-14 23:01N 53°24' E 004°43'611.0
2018-Apr-14 22:30N 53°20' E 004°38'611.3
2018-Apr-14 21:57N 53°14' E 004°33'511.2
2018-Apr-14 21:30N 53°10' E 004°30'611.1
2018-Apr-14 21:00N 53°05' E 004°26'611.3
2018-Apr-14 20:30N 52°60' E 004°21'611.3
2018-Apr-14 20:00N 52°55' E 004°17'611.1
2018-Apr-14 19:31N 52°50' E 004°13'611.2
2018-Apr-14 19:00N 52°45' E 004°07'611.5
2018-Apr-14 18:30N 52°41' E 004°01'611.7
2018-Apr-14 18:00N 52°37' E 003°54'612.0
2018-Apr-14 17:30N 52°32' E 003°47'612.3
2018-Apr-14 16:59N 52°28' E 003°40'612.6
2018-Apr-14 16:29N 52°23' E 003°33'612.7
2018-Apr-14 16:00N 52°19' E 003°26'5412.6
2018-Apr-14 11:40N 51°31' E 002°43'313.0
2018-Apr-14 11:26N 51°28' E 002°43'512.1
2018-Apr-14 11:00N 51°23' E 002°45'5 9.2
2018-Apr-14 10:30N 51°22' E 002°52'611.1
2018-Apr-14 10:00N 51°22' E 003°01'611.2
2018-Apr-14 09:31N 51°22' E 003°10'2 3.6
2018-Apr-14 09:00N 51°21' E 003°12'0 0.0
2018-Apr-14 08:30N 51°21' E 003°12'0 0.0
2018-Apr-14 08:00N 51°21' E 003°12'0 0.0
2018-Apr-14 07:27N 51°21' E 003°12'0 0.0
2018-Apr-14 07:00N 51°21' E 003°12'0 0.0
2018-Apr-14 06:30N 51°21' E 003°12'0 0.0
2018-Apr-14 06:00N 51°21' E 003°12'0 0.0
2018-Apr-14 05:30N 51°21' E 003°12'0 0.0
2018-Apr-14 05:00N 51°21' E 003°12'0 0.0
2018-Apr-14 04:30N 51°21' E 003°12'0 0.0
2018-Apr-14 04:00N 51°21' E 003°12'0 0.0
2018-Apr-14 03:30N 51°21' E 003°12'0 0.0
2018-Apr-14 03:00N 51°21' E 003°12'0 0.0
2018-Apr-14 02:30N 51°21' E 003°12'0 0.0
2018-Apr-14 01:57N 51°21' E 003°12'0 0.0
2018-Apr-14 01:30N 51°21' E 003°12'0 0.0
2018-Apr-14 01:00N 51°21' E 003°12'0 0.0
2018-Apr-14 00:30N 51°21' E 003°12'0 0.0
2018-Apr-14 00:00N 51°21' E 003°12'0 0.0
2018-Apr-13 23:30N 51°21' E 003°12'0 0.0
2018-Apr-13 23:00N 51°21' E 003°12'0 0.0
2018-Apr-13 22:30N 51°21' E 003°12'0 0.0
2018-Apr-13 22:00N 51°21' E 003°12'0 0.0
2018-Apr-13 21:30N 51°21' E 003°12'0 0.0
2018-Apr-13 21:00N 51°21' E 003°12'0 0.0
2018-Apr-13 20:30N 51°21' E 003°12'0 0.0
2018-Apr-13 20:00N 51°21' E 003°12'0 0.0
2018-Apr-13 19:30N 51°21' E 003°12'0 0.0
2018-Apr-13 19:00N 51°21' E 003°12'0 0.0
2018-Apr-13 18:30N 51°21' E 003°12'0 0.0
2018-Apr-13 18:00N 51°21' E 003°12'0 0.0
2018-Apr-13 17:30N 51°21' E 003°12'0 0.0
2018-Apr-13 17:00N 51°21' E 003°12'0 0.0
2018-Apr-13 16:30N 51°21' E 003°12'0 0.0
2018-Apr-13 16:00N 51°21' E 003°12'0 0.0
2018-Apr-13 15:30N 51°21' E 003°12'0 0.0
2018-Apr-13 15:00N 51°21' E 003°12'0 0.0
2018-Apr-13 14:30N 51°21' E 003°12'0 0.0
2018-Apr-13 14:00N 51°21' E 003°12'0 0.0
2018-Apr-13 13:30N 51°21' E 003°12'0 0.0
2018-Apr-13 12:59N 51°21' E 003°12'0 0.0
2018-Apr-13 12:30N 51°21' E 003°12'0 0.0
2018-Apr-13 12:00N 51°21' E 003°12'0 0.0
2018-Apr-13 11:29N 51°21' E 003°12'0 0.0
2018-Apr-13 11:00N 51°21' E 003°12'0 0.0
2018-Apr-13 10:30N 51°21' E 003°12'0 0.0
2018-Apr-13 10:00N 51°21' E 003°12'0 0.0
2018-Apr-13 09:30N 51°21' E 003°12'0 0.0
2018-Apr-13 09:00N 51°21' E 003°12'0 0.0
2018-Apr-13 08:30N 51°21' E 003°12'0 0.0
2018-Apr-13 08:00N 51°21' E 003°12'0 0.0
2018-Apr-13 07:29N 51°21' E 003°12'0 0.0
2018-Apr-13 07:00N 51°21' E 003°12'0 0.0
2018-Apr-13 06:26N 51°21' E 003°12'0 0.0
2018-Apr-13 05:59N 51°21' E 003°12'0 0.0
2018-Apr-13 05:29N 51°21' E 003°12'0 0.0
2018-Apr-13 04:59N 51°21' E 003°12'0 0.0
2018-Apr-13 04:26N 51°21' E 003°12'0 0.0
2018-Apr-13 04:00N 51°21' E 003°12'0 0.0
2018-Apr-13 03:30N 51°21' E 003°12'0 0.0
2018-Apr-13 02:59N 51°21' E 003°12'0 0.0
2018-Apr-13 02:29N 51°21' E 003°12'0 0.0
2018-Apr-13 02:00N 51°21' E 003°12'0 0.0
2018-Apr-13 01:30N 51°21' E 003°12'0 0.0
2018-Apr-13 00:59N 51°21' E 003°12'0 0.0
2018-Apr-13 00:30N 51°21' E 003°12'0 0.0
2018-Apr-12 23:59N 51°21' E 003°12'0 0.0
2018-Apr-12 23:29N 51°21' E 003°12'0 0.0
2018-Apr-12 22:59N 51°21' E 003°12'0 0.0
2018-Apr-12 22:29N 51°21' E 003°12'0 0.0
2018-Apr-12 21:59N 51°21' E 003°12'0 0.0
2018-Apr-12 21:29N 51°21' E 003°12'0 0.0
2018-Apr-12 20:59N 51°21' E 003°12'0 0.0
2018-Apr-12 20:29N 51°21' E 003°12'0 0.0
2018-Apr-12 20:00N 51°21' E 003°12'0 0.0
2018-Apr-12 19:30N 51°21' E 003°12'0 0.0
2018-Apr-12 18:59N 51°21' E 003°12'0 0.0
2018-Apr-12 18:29N 51°21' E 003°12'0 0.0
2018-Apr-12 17:59N 51°21' E 003°12'0 0.0
2018-Apr-12 17:29N 51°21' E 003°12'0 0.0
2018-Apr-12 16:59N 51°21' E 003°12'0 0.0
2018-Apr-12 16:29N 51°21' E 003°12'0 0.0
2018-Apr-12 15:59N 51°21' E 003°12'0 0.0
2018-Apr-12 15:29N 51°21' E 003°12'0 0.0
2018-Apr-12 14:59N 51°21' E 003°12'0 0.0
2018-Apr-12 14:29N 51°21' E 003°12'0 0.0
2018-Apr-12 13:59N 51°21' E 003°12'0 0.0
2018-Apr-12 13:30N 51°21' E 003°12'0 0.0
2018-Apr-12 12:59N 51°21' E 003°12'0 0.0
2018-Apr-12 12:29N 51°21' E 003°12'0 0.0
2018-Apr-12 11:59N 51°21' E 003°12'0 0.0
2018-Apr-12 11:29N 51°21' E 003°12'0 0.0
2018-Apr-12 10:59N 51°21' E 003°12'0 0.0
2018-Apr-12 10:29N 51°21' E 003°12'0 0.0
2018-Apr-12 09:59N 51°21' E 003°12'0 0.0
2018-Apr-12 09:29N 51°21' E 003°12'0 0.0
2018-Apr-12 08:59N 51°21' E 003°12'0 0.0
2018-Apr-12 08:29N 51°21' E 003°12'0 0.0
2018-Apr-12 07:59N 51°21' E 003°12'0 0.0
2018-Apr-12 07:26N 51°21' E 003°12'0 0.0
2018-Apr-12 06:59N 51°21' E 003°12'0 0.0
2018-Apr-12 06:26N 51°21' E 003°12'0 0.0
2018-Apr-12 05:59N 51°21' E 003°12'0 0.0
2018-Apr-12 05:29N 51°21' E 003°12'0 0.0
2018-Apr-12 04:59N 51°21' E 003°12'0 0.0
2018-Apr-12 04:29N 51°21' E 003°12'0 0.0
2018-Apr-12 03:59N 51°21' E 003°12'0 0.0
2018-Apr-12 03:29N 51°21' E 003°12'0 0.0
2018-Apr-12 02:59N 51°21' E 003°12'0 0.0
2018-Apr-12 02:29N 51°21' E 003°12'0 0.0
2018-Apr-12 01:59N 51°21' E 003°12'0 0.0
2018-Apr-12 01:29N 51°21' E 003°12'0 0.0
2018-Apr-12 00:59N 51°21' E 003°12'0 0.0
2018-Apr-12 00:29N 51°21' E 003°12'0 0.0
2018-Apr-11 23:59N 51°21' E 003°12'0 0.0
2018-Apr-11 23:29N 51°21' E 003°12'0 0.0
2018-Apr-11 22:59N 51°21' E 003°12'0 0.0
2018-Apr-11 22:29N 51°21' E 003°12'0 0.0
2018-Apr-11 21:59N 51°21' E 003°12'0 0.0
2018-Apr-11 21:29N 51°21' E 003°12'0 0.0
2018-Apr-11 20:59N 51°21' E 003°12'0 0.0
2018-Apr-11 20:29N 51°21' E 003°12'0 0.0
2018-Apr-11 19:59N 51°21' E 003°12'0 0.0
2018-Apr-11 19:29N 51°21' E 003°12'0 0.0
2018-Apr-11 18:59N 51°21' E 003°12'0 0.0
2018-Apr-11 18:29N 51°21' E 003°12'0 0.0
2018-Apr-11 17:59N 51°21' E 003°12'0 0.0
2018-Apr-11 17:29N 51°21' E 003°12'0 0.0
2018-Apr-11 16:59N 51°21' E 003°12'0 0.0
2018-Apr-11 16:29N 51°21' E 003°12'0 0.0
2018-Apr-11 15:59N 51°21' E 003°12'0 0.0
2018-Apr-11 15:29N 51°21' E 003°12'0 0.0
2018-Apr-11 14:59N 51°21' E 003°12'0 0.0
2018-Apr-11 14:29N 51°21' E 003°12'0 0.0
2018-Apr-11 13:59N 51°21' E 003°12'0 0.0
2018-Apr-11 13:29N 51°21' E 003°12'0 0.0
2018-Apr-11 12:59N 51°21' E 003°12'0 0.0
2018-Apr-11 12:29N 51°21' E 003°12'0 0.0
2018-Apr-11 11:59N 51°21' E 003°12'0 0.0
2018-Apr-11 11:29N 51°21' E 003°12'0 0.0
2018-Apr-11 10:59N 51°21' E 003°12'0 0.0
2018-Apr-11 10:29N 51°21' E 003°12'0 0.0
2018-Apr-11 09:59N 51°21' E 003°12'0 0.0
2018-Apr-11 09:29N 51°21' E 003°12'0 0.0
2018-Apr-11 08:56N 51°21' E 003°12'0 0.0
2018-Apr-11 08:29N 51°21' E 003°12'0 0.0
2018-Apr-11 07:59N 51°21' E 003°12'0 0.0
2018-Apr-11 07:29N 51°21' E 003°12'0 0.0
2018-Apr-11 06:59N 51°21' E 003°12'0 0.0
2018-Apr-11 06:29N 51°21' E 003°12'0 0.0
2018-Apr-11 05:59N 51°21' E 003°12'0 0.0
2018-Apr-11 05:20N 51°21' E 003°12'0 0.0
2018-Apr-11 04:59N 51°21' E 003°12'0 0.0
2018-Apr-11 04:29N 51°21' E 003°12'0 0.0
2018-Apr-11 03:59N 51°21' E 003°12'0 0.0
2018-Apr-11 03:29N 51°21' E 003°12'0 0.0
2018-Apr-11 02:59N 51°21' E 003°12'0 0.0
2018-Apr-11 02:29N 51°21' E 003°12'0 0.0
2018-Apr-11 01:59N 51°21' E 003°12'0 0.0
2018-Apr-11 01:29N 51°21' E 003°12'0 0.0
2018-Apr-11 00:59N 51°21' E 003°12'0 0.0
2018-Apr-11 00:29N 51°21' E 003°12'0 0.0
2018-Apr-10 23:59N 51°21' E 003°12'0 0.0
2018-Apr-10 23:29N 51°21' E 003°12'  

Dump ship's entire track history